sensor_id;sensor_type;location;lat;lon;timestamp;P1;durP1;ratioP1;P2;durP2;ratioP2
52744;SDS011;38637;49.984;20.426;2023-11-21T00:00:24;9.90;;;6.70;;
52744;SDS011;38637;49.984;20.426;2023-11-21T00:02:49;7.93;;;6.57;;
52744;SDS011;38637;49.984;20.426;2023-11-21T00:05:15;9.10;;;6.90;;
52744;SDS011;38637;49.984;20.426;2023-11-21T00:07:41;8.43;;;6.53;;
52744;SDS011;38637;49.984;20.426;2023-11-21T00:10:07;8.35;;;6.13;;
52744;SDS011;38637;49.984;20.426;2023-11-21T00:12:34;11.05;;;6.40;;
52744;SDS011;38637;49.984;20.426;2023-11-21T00:15:00;9.20;;;6.27;;
52744;SDS011;38637;49.984;20.426;2023-11-21T00:17:26;8.25;;;6.45;;
52744;SDS011;38637;49.984;20.426;2023-11-21T00:19:52;10.60;;;7.13;;
52744;SDS011;38637;49.984;20.426;2023-11-21T00:22:18;8.37;;;6.47;;
52744;SDS011;38637;49.984;20.426;2023-11-21T00:24:43;9.80;;;6.17;;
52744;SDS011;38637;49.984;20.426;2023-11-21T00:27:09;7.20;;;6.30;;
52744;SDS011;38637;49.984;20.426;2023-11-21T00:29:35;9.33;;;5.67;;
52744;SDS011;38637;49.984;20.426;2023-11-21T00:32:00;10.37;;;6.90;;
52744;SDS011;38637;49.984;20.426;2023-11-21T00:34:26;7.67;;;5.10;;
52744;SDS011;38637;49.984;20.426;2023-11-21T00:36:51;8.07;;;6.20;;
52744;SDS011;38637;49.984;20.426;2023-11-21T00:39:16;6.73;;;5.00;;
52744;SDS011;38637;49.984;20.426;2023-11-21T00:41:42;7.77;;;5.17;;
52744;SDS011;38637;49.984;20.426;2023-11-21T00:44:07;6.27;;;4.67;;
52744;SDS011;38637;49.984;20.426;2023-11-21T00:46:33;7.27;;;5.40;;
52744;SDS011;38637;49.984;20.426;2023-11-21T00:48:58;6.00;;;5.07;;
52744;SDS011;38637;49.984;20.426;2023-11-21T00:51:24;8.23;;;5.40;;
52744;SDS011;38637;49.984;20.426;2023-11-21T00:53:49;6.47;;;4.83;;
52744;SDS011;38637;49.984;20.426;2023-11-21T00:56:15;7.47;;;4.83;;
52744;SDS011;38637;49.984;20.426;2023-11-21T00:58:40;7.93;;;5.30;;
52744;SDS011;38637;49.984;20.426;2023-11-21T01:01:08;5.93;;;4.72;;
52744;SDS011;38637;49.984;20.426;2023-11-21T01:03:34;7.00;;;5.10;;
52744;SDS011;38637;49.984;20.426;2023-11-21T01:05:59;5.57;;;5.00;;
52744;SDS011;38637;49.984;20.426;2023-11-21T01:08:25;7.70;;;5.83;;
52744;SDS011;38637;49.984;20.426;2023-11-21T01:10:50;7.67;;;5.20;;
52744;SDS011;38637;49.984;20.426;2023-11-21T01:13:16;6.87;;;4.67;;
52744;SDS011;38637;49.984;20.426;2023-11-21T01:15:41;6.00;;;4.90;;
52744;SDS011;38637;49.984;20.426;2023-11-21T01:18:07;7.23;;;4.93;;
52744;SDS011;38637;49.984;20.426;2023-11-21T01:20:33;5.70;;;4.53;;
52744;SDS011;38637;49.984;20.426;2023-11-21T01:22:59;5.18;;;4.57;;
52744;SDS011;38637;49.984;20.426;2023-11-21T01:25:25;5.77;;;4.40;;
52744;SDS011;38637;49.984;20.426;2023-11-21T01:27:51;6.70;;;4.57;;
52744;SDS011;38637;49.984;20.426;2023-11-21T01:30:16;5.63;;;4.30;;
52744;SDS011;38637;49.984;20.426;2023-11-21T01:32:42;6.00;;;5.10;;
52744;SDS011;38637;49.984;20.426;2023-11-21T01:35:08;7.20;;;4.38;;
52744;SDS011;38637;49.984;20.426;2023-11-21T01:37:35;7.97;;;5.95;;
52744;SDS011;38637;49.984;20.426;2023-11-21T01:40:01;8.80;;;5.60;;
52744;SDS011;38637;49.984;20.426;2023-11-21T01:42:27;6.05;;;5.07;;
52744;SDS011;38637;49.984;20.426;2023-11-21T01:47:19;6.47;;;5.28;;
52744;SDS011;38637;49.984;20.426;2023-11-21T01:49:46;6.75;;;4.68;;
52744;SDS011;38637;49.984;20.426;2023-11-21T01:52:12;6.47;;;5.82;;
52744;SDS011;38637;49.984;20.426;2023-11-21T01:54:38;7.07;;;5.97;;
52744;SDS011;38637;49.984;20.426;2023-11-21T01:57:04;8.27;;;6.13;;
52744;SDS011;38637;49.984;20.426;2023-11-21T01:59:34;7.85;;;7.05;;
52744;SDS011;38637;49.984;20.426;2023-11-21T02:02:05;8.52;;;7.72;;
52744;SDS011;38637;49.984;20.426;2023-11-21T02:04:34;7.72;;;6.93;;
52744;SDS011;38637;49.984;20.426;2023-11-21T02:07:04;8.07;;;7.25;;
52744;SDS011;38637;49.984;20.426;2023-11-21T02:09:32;9.25;;;7.65;;
52744;SDS011;38637;49.984;20.426;2023-11-21T02:11:59;8.10;;;7.20;;
52744;SDS011;38637;49.984;20.426;2023-11-21T02:14:26;6.28;;;5.63;;
52744;SDS011;38637;49.984;20.426;2023-11-21T02:16:53;5.95;;;4.47;;
52744;SDS011;38637;49.984;20.426;2023-11-21T02:19:19;6.95;;;4.50;;
52744;SDS011;38637;49.984;20.426;2023-11-21T02:21:50;5.82;;;5.18;;
52744;SDS011;38637;49.984;20.426;2023-11-21T02:24:20;5.78;;;4.38;;
52744;SDS011;38637;49.984;20.426;2023-11-21T02:26:48;7.15;;;5.30;;
52744;SDS011;38637;49.984;20.426;2023-11-21T02:29:16;6.75;;;5.45;;
52744;SDS011;38637;49.984;20.426;2023-11-21T02:31:43;6.55;;;4.80;;
52744;SDS011;38637;49.984;20.426;2023-11-21T02:34:15;7.70;;;5.20;;
52744;SDS011;38637;49.984;20.426;2023-11-21T02:39:08;5.60;;;5.07;;
52744;SDS011;38637;49.984;20.426;2023-11-21T02:41:34;8.40;;;5.13;;
52744;SDS011;38637;49.984;20.426;2023-11-21T02:43:59;7.10;;;5.70;;
52744;SDS011;38637;49.984;20.426;2023-11-21T02:46:25;8.73;;;5.83;;
52744;SDS011;38637;49.984;20.426;2023-11-21T02:48:51;13.67;;;6.17;;
52744;SDS011;38637;49.984;20.426;2023-11-21T02:51:18;6.40;;;5.20;;
52744;SDS011;38637;49.984;20.426;2023-11-21T02:53:43;9.53;;;5.63;;
52744;SDS011;38637;49.984;20.426;2023-11-21T02:56:09;6.47;;;4.77;;
52744;SDS011;38637;49.984;20.426;2023-11-21T02:58:34;7.23;;;5.70;;
52744;SDS011;38637;49.984;20.426;2023-11-21T03:00:59;8.20;;;5.40;;
52744;SDS011;38637;49.984;20.426;2023-11-21T03:03:25;8.73;;;5.07;;
52744;SDS011;38637;49.984;20.426;2023-11-21T03:05:51;5.23;;;4.33;;
52744;SDS011;38637;49.984;20.426;2023-11-21T03:08:16;7.80;;;5.60;;
52744;SDS011;38637;49.984;20.426;2023-11-21T03:10:41;5.50;;;4.03;;
52744;SDS011;38637;49.984;20.426;2023-11-21T03:13:07;11.17;;;4.90;;
52744;SDS011;38637;49.984;20.426;2023-11-21T03:15:33;7.43;;;4.28;;
52744;SDS011;38637;49.984;20.426;2023-11-21T03:20:25;6.30;;;5.22;;
52744;SDS011;38637;49.984;20.426;2023-11-21T03:22:50;7.03;;;5.27;;
52744;SDS011;38637;49.984;20.426;2023-11-21T03:25:16;6.17;;;5.53;;
52744;SDS011;38637;49.984;20.426;2023-11-21T03:27:42;6.67;;;5.50;;
52744;SDS011;38637;49.984;20.426;2023-11-21T03:30:09;7.93;;;5.68;;
52744;SDS011;38637;49.984;20.426;2023-11-21T03:32:35;9.80;;;5.35;;
52744;SDS011;38637;49.984;20.426;2023-11-21T03:35:01;8.57;;;5.03;;
52744;SDS011;38637;49.984;20.426;2023-11-21T03:37:27;8.32;;;5.03;;
52744;SDS011;38637;49.984;20.426;2023-11-21T03:39:53;8.63;;;4.87;;
52744;SDS011;38637;49.984;20.426;2023-11-21T03:42:20;5.93;;;4.85;;
52744;SDS011;38637;49.984;20.426;2023-11-21T03:44:45;6.63;;;5.33;;
52744;SDS011;38637;49.984;20.426;2023-11-21T03:47:11;9.27;;;5.40;;
52744;SDS011;38637;49.984;20.426;2023-11-21T03:49:36;7.53;;;4.77;;
52744;SDS011;38637;49.984;20.426;2023-11-21T03:52:02;8.20;;;4.28;;
52744;SDS011;38637;49.984;20.426;2023-11-21T03:54:28;7.00;;;4.23;;
52744;SDS011;38637;49.984;20.426;2023-11-21T03:56:53;7.53;;;4.33;;
52744;SDS011;38637;49.984;20.426;2023-11-21T03:59:19;4.67;;;3.80;;
52744;SDS011;38637;49.984;20.426;2023-11-21T04:01:44;4.00;;;3.60;;
52744;SDS011;38637;49.984;20.426;2023-11-21T04:04:09;5.70;;;3.77;;
52744;SDS011;38637;49.984;20.426;2023-11-21T04:06:35;6.30;;;4.13;;
52744;SDS011;38637;49.984;20.426;2023-11-21T04:09:02;4.53;;;3.90;;
52744;SDS011;38637;49.984;20.426;2023-11-21T04:11:29;4.18;;;3.78;;
52744;SDS011;38637;49.984;20.426;2023-11-21T04:13:55;5.40;;;4.17;;
52744;SDS011;38637;49.984;20.426;2023-11-21T04:16:20;5.10;;;3.53;;
52744;SDS011;38637;49.984;20.426;2023-11-21T04:18:45;7.37;;;4.07;;
52744;SDS011;38637;49.984;20.426;2023-11-21T04:21:11;5.43;;;3.47;;
52744;SDS011;38637;49.984;20.426;2023-11-21T04:23:37;5.82;;;3.58;;
52744;SDS011;38637;49.984;20.426;2023-11-21T04:26:02;5.27;;;3.17;;
52744;SDS011;38637;49.984;20.426;2023-11-21T04:28:28;5.07;;;3.27;;
52744;SDS011;38637;49.984;20.426;2023-11-21T04:30:53;4.10;;;2.87;;
52744;SDS011;38637;49.984;20.426;2023-11-21T04:33:18;5.00;;;3.73;;
52744;SDS011;38637;49.984;20.426;2023-11-21T04:35:44;7.30;;;3.93;;
52744;SDS011;38637;49.984;20.426;2023-11-21T04:38:09;7.43;;;4.00;;
52744;SDS011;38637;49.984;20.426;2023-11-21T04:40:35;4.73;;;3.30;;
52744;SDS011;38637;49.984;20.426;2023-11-21T04:43:00;4.17;;;3.83;;
52744;SDS011;38637;49.984;20.426;2023-11-21T04:45:26;4.30;;;3.38;;
52744;SDS011;38637;49.984;20.426;2023-11-21T04:47:51;6.37;;;2.90;;
52744;SDS011;38637;49.984;20.426;2023-11-21T04:50:17;4.37;;;3.10;;
52744;SDS011;38637;49.984;20.426;2023-11-21T04:52:43;4.38;;;3.42;;
52744;SDS011;38637;49.984;20.426;2023-11-21T04:55:09;4.23;;;3.43;;
52744;SDS011;38637;49.984;20.426;2023-11-21T04:57:38;5.15;;;3.67;;
52744;SDS011;38637;49.984;20.426;2023-11-21T05:00:06;6.28;;;3.38;;
52744;SDS011;38637;49.984;20.426;2023-11-21T05:02:32;7.45;;;3.97;;
52744;SDS011;38637;49.984;20.426;2023-11-21T05:04:59;8.77;;;4.00;;
52744;SDS011;38637;49.984;20.426;2023-11-21T05:07:25;5.13;;;3.43;;
52744;SDS011;38637;49.984;20.426;2023-11-21T05:09:52;6.25;;;3.47;;
52744;SDS011;38637;49.984;20.426;2023-11-21T05:12:17;5.07;;;3.70;;
52744;SDS011;38637;49.984;20.426;2023-11-21T05:14:43;5.23;;;3.57;;
52744;SDS011;38637;49.984;20.426;2023-11-21T05:17:08;10.07;;;4.30;;
52744;SDS011;38637;49.984;20.426;2023-11-21T05:19:34;7.97;;;3.60;;
52744;SDS011;38637;49.984;20.426;2023-11-21T05:22:00;6.13;;;3.58;;
52744;SDS011;38637;49.984;20.426;2023-11-21T05:24:26;6.17;;;5.10;;
52744;SDS011;38637;49.984;20.426;2023-11-21T05:26:51;7.10;;;5.83;;
52744;SDS011;38637;49.984;20.426;2023-11-21T05:29:17;5.20;;;4.38;;
52744;SDS011;38637;49.984;20.426;2023-11-21T05:31:43;6.00;;;4.47;;
52744;SDS011;38637;49.984;20.426;2023-11-21T05:34:08;7.40;;;4.70;;
52744;SDS011;38637;49.984;20.426;2023-11-21T05:36:34;5.77;;;4.53;;
52744;SDS011;38637;49.984;20.426;2023-11-21T05:38:59;7.07;;;4.13;;
52744;SDS011;38637;49.984;20.426;2023-11-21T05:41:24;7.77;;;5.63;;
52744;SDS011;38637;49.984;20.426;2023-11-21T05:43:50;9.10;;;7.03;;
52744;SDS011;38637;49.984;20.426;2023-11-21T05:46:16;11.67;;;7.70;;
52744;SDS011;38637;49.984;20.426;2023-11-21T05:48:41;10.93;;;7.27;;
52744;SDS011;38637;49.984;20.426;2023-11-21T05:51:07;10.00;;;6.57;;
52744;SDS011;38637;49.984;20.426;2023-11-21T05:53:37;8.85;;;5.25;;
52744;SDS011;38637;49.984;20.426;2023-11-21T05:56:03;9.83;;;6.17;;
52744;SDS011;38637;49.984;20.426;2023-11-21T05:58:29;10.48;;;7.18;;
52744;SDS011;38637;49.984;20.426;2023-11-21T06:00:54;10.23;;;7.13;;
52744;SDS011;38637;49.984;20.426;2023-11-21T06:03:19;9.63;;;7.47;;
52744;SDS011;38637;49.984;20.426;2023-11-21T06:05:45;9.70;;;7.13;;
52744;SDS011;38637;49.984;20.426;2023-11-21T06:08:10;12.17;;;7.70;;
52744;SDS011;38637;49.984;20.426;2023-11-21T06:10:35;10.23;;;7.00;;
52744;SDS011;38637;49.984;20.426;2023-11-21T06:13:01;12.40;;;8.10;;
52744;SDS011;38637;49.984;20.426;2023-11-21T06:15:26;16.77;;;11.47;;
52744;SDS011;38637;49.984;20.426;2023-11-21T06:17:52;16.13;;;10.20;;
52744;SDS011;38637;49.984;20.426;2023-11-21T06:20:17;12.47;;;8.43;;
52744;SDS011;38637;49.984;20.426;2023-11-21T06:22:46;19.08;;;9.27;;
52744;SDS011;38637;49.984;20.426;2023-11-21T06:25:12;9.00;;;7.07;;
52744;SDS011;38637;49.984;20.426;2023-11-21T06:27:39;8.80;;;6.85;;
52744;SDS011;38637;49.984;20.426;2023-11-21T06:30:06;13.73;;;8.30;;
52744;SDS011;38637;49.984;20.426;2023-11-21T06:32:34;10.90;;;7.10;;
52744;SDS011;38637;49.984;20.426;2023-11-21T06:35:01;10.13;;;6.90;;
52744;SDS011;38637;49.984;20.426;2023-11-21T06:37:28;10.13;;;7.07;;
52744;SDS011;38637;49.984;20.426;2023-11-21T06:39:54;9.90;;;7.53;;
52744;SDS011;38637;49.984;20.426;2023-11-21T06:42:20;13.90;;;9.17;;
52744;SDS011;38637;49.984;20.426;2023-11-21T06:44:46;12.77;;;8.17;;
52744;SDS011;38637;49.984;20.426;2023-11-21T06:47:11;12.25;;;10.13;;
52744;SDS011;38637;49.984;20.426;2023-11-21T06:49:37;14.10;;;9.10;;
52744;SDS011;38637;49.984;20.426;2023-11-21T06:52:03;11.52;;;8.20;;
52744;SDS011;38637;49.984;20.426;2023-11-21T06:54:30;12.25;;;8.63;;
52744;SDS011;38637;49.984;20.426;2023-11-21T06:56:56;10.75;;;9.32;;
52744;SDS011;38637;49.984;20.426;2023-11-21T06:59:22;11.40;;;9.73;;
52744;SDS011;38637;49.984;20.426;2023-11-21T07:01:47;15.10;;;10.93;;
52744;SDS011;38637;49.984;20.426;2023-11-21T07:04:13;13.60;;;9.53;;
52744;SDS011;38637;49.984;20.426;2023-11-21T07:06:38;14.27;;;9.67;;
52744;SDS011;38637;49.984;20.426;2023-11-21T07:09:03;14.70;;;10.13;;
52744;SDS011;38637;49.984;20.426;2023-11-21T07:11:29;11.87;;;9.87;;
52744;SDS011;38637;49.984;20.426;2023-11-21T07:13:54;15.47;;;10.60;;
52744;SDS011;38637;49.984;20.426;2023-11-21T07:16:20;16.17;;;10.77;;
52744;SDS011;38637;49.984;20.426;2023-11-21T07:18:45;15.57;;;11.00;;
52744;SDS011;38637;49.984;20.426;2023-11-21T07:21:11;14.73;;;10.30;;
52744;SDS011;38637;49.984;20.426;2023-11-21T07:23:37;14.97;;;9.67;;
52744;SDS011;38637;49.984;20.426;2023-11-21T07:26:03;14.65;;;9.77;;
52744;SDS011;38637;49.984;20.426;2023-11-21T07:28:33;11.60;;;9.55;;
52744;SDS011;38637;49.984;20.426;2023-11-21T07:30:59;13.67;;;10.53;;
52744;SDS011;38637;49.984;20.426;2023-11-21T07:33:25;13.77;;;10.10;;
52744;SDS011;38637;49.984;20.426;2023-11-21T07:35:50;12.50;;;10.17;;
52744;SDS011;38637;49.984;20.426;2023-11-21T07:38:16;13.68;;;10.38;;
52744;SDS011;38637;49.984;20.426;2023-11-21T07:40:43;13.00;;;10.98;;
52744;SDS011;38637;49.984;20.426;2023-11-21T07:43:08;17.30;;;11.77;;
52744;SDS011;38637;49.984;20.426;2023-11-21T07:45:34;38.73;;;23.47;;
52744;SDS011;38637;49.984;20.426;2023-11-21T07:47:59;28.00;;;19.00;;
52744;SDS011;38637;49.984;20.426;2023-11-21T07:50:28;35.47;;;21.33;;
52744;SDS011;38637;49.984;20.426;2023-11-21T07:52:53;36.83;;;21.97;;
52744;SDS011;38637;49.984;20.426;2023-11-21T07:55:19;37.30;;;22.57;;
52744;SDS011;38637;49.984;20.426;2023-11-21T07:57:45;26.60;;;16.40;;
52744;SDS011;38637;49.984;20.426;2023-11-21T08:00:10;38.37;;;22.70;;
52744;SDS011;38637;49.984;20.426;2023-11-21T08:05:03;88.15;;;37.25;;
52744;SDS011;38637;49.984;20.426;2023-11-21T08:07:29;60.38;;;26.23;;
52744;SDS011;38637;49.984;20.426;2023-11-21T08:09:54;109.57;;;54.47;;
52744;SDS011;38637;49.984;20.426;2023-11-21T08:12:19;108.47;;;58.97;;
52744;SDS011;38637;49.984;20.426;2023-11-21T08:14:45;40.37;;;18.83;;
52744;SDS011;38637;49.984;20.426;2023-11-21T08:17:10;52.67;;;27.40;;
52744;SDS011;38637;49.984;20.426;2023-11-21T08:19:36;61.07;;;41.80;;
52744;SDS011;38637;49.984;20.426;2023-11-21T08:22:02;91.40;;;60.93;;
52744;SDS011;38637;49.984;20.426;2023-11-21T08:24:28;42.53;;;24.15;;
52744;SDS011;38637;49.984;20.426;2023-11-21T08:26:53;50.00;;;27.17;;
52744;SDS011;38637;49.984;20.426;2023-11-21T08:29:19;42.80;;;23.13;;
52744;SDS011;38637;49.984;20.426;2023-11-21T08:31:45;43.17;;;24.33;;
52744;SDS011;38637;49.984;20.426;2023-11-21T08:34:12;23.40;;;14.82;;
52744;SDS011;38637;49.984;20.426;2023-11-21T08:36:41;22.55;;;13.52;;
52744;SDS011;38637;49.984;20.426;2023-11-21T08:39:07;13.88;;;11.20;;
52744;SDS011;38637;49.984;20.426;2023-11-21T08:41:34;38.17;;;20.75;;
52744;SDS011;38637;49.984;20.426;2023-11-21T08:43:59;20.60;;;12.57;;
52744;SDS011;38637;49.984;20.426;2023-11-21T08:46:25;76.07;;;32.53;;
52744;SDS011;38637;49.984;20.426;2023-11-21T08:48:51;53.10;;;24.27;;
52744;SDS011;38637;49.984;20.426;2023-11-21T08:51:17;48.10;;;26.63;;
52744;SDS011;38637;49.984;20.426;2023-11-21T08:53:43;74.00;;;35.70;;
52744;SDS011;38637;49.984;20.426;2023-11-21T08:56:14;44.50;;;25.00;;
52744;SDS011;38637;49.984;20.426;2023-11-21T08:58:40;34.53;;;21.73;;
52744;SDS011;38637;49.984;20.426;2023-11-21T09:01:06;21.27;;;15.27;;
52744;SDS011;38637;49.984;20.426;2023-11-21T09:03:32;11.77;;;10.40;;
52744;SDS011;38637;49.984;20.426;2023-11-21T09:05:59;20.83;;;16.00;;
52744;SDS011;38637;49.984;20.426;2023-11-21T09:08:25;16.30;;;13.20;;
52744;SDS011;38637;49.984;20.426;2023-11-21T09:10:50;15.50;;;12.77;;
52744;SDS011;38637;49.984;20.426;2023-11-21T09:13:16;13.27;;;11.07;;
52744;SDS011;38637;49.984;20.426;2023-11-21T09:15:43;13.18;;;10.73;;
52744;SDS011;38637;49.984;20.426;2023-11-21T09:18:11;14.80;;;13.05;;
52744;SDS011;38637;49.984;20.426;2023-11-21T09:20:40;16.58;;;12.68;;
52744;SDS011;38637;49.984;20.426;2023-11-21T09:23:05;19.47;;;13.47;;
52744;SDS011;38637;49.984;20.426;2023-11-21T09:25:32;16.35;;;13.88;;
52744;SDS011;38637;49.984;20.426;2023-11-21T09:27:57;17.70;;;12.77;;
52744;SDS011;38637;49.984;20.426;2023-11-21T09:30:23;19.57;;;15.63;;
52744;SDS011;38637;49.984;20.426;2023-11-21T09:32:50;17.20;;;13.75;;
52744;SDS011;38637;49.984;20.426;2023-11-21T09:35:15;18.55;;;13.07;;
52744;SDS011;38637;49.984;20.426;2023-11-21T09:37:43;19.55;;;13.70;;
52744;SDS011;38637;49.984;20.426;2023-11-21T09:40:12;18.90;;;13.25;;
52744;SDS011;38637;49.984;20.426;2023-11-21T09:42:39;19.35;;;14.65;;
52744;SDS011;38637;49.984;20.426;2023-11-21T09:47:43;17.27;;;12.82;;
52744;SDS011;38637;49.984;20.426;2023-11-21T09:50:09;31.63;;;21.15;;
52744;SDS011;38637;49.984;20.426;2023-11-21T09:53:18;21.80;;;16.10;;
52744;SDS011;38637;49.984;20.426;2023-11-21T09:55:35;18.58;;;12.32;;
52744;SDS011;38637;49.984;20.426;2023-11-21T09:58:04;29.35;;;18.95;;
52744;SDS011;38637;49.984;20.426;2023-11-21T10:00:33;37.17;;;22.52;;
52744;SDS011;38637;49.984;20.426;2023-11-21T10:02:59;27.43;;;18.20;;
52744;SDS011;38637;49.984;20.426;2023-11-21T10:05:25;34.40;;;23.25;;
52744;SDS011;38637;49.984;20.426;2023-11-21T10:07:51;42.53;;;24.52;;
52744;SDS011;38637;49.984;20.426;2023-11-21T10:10:19;33.85;;;23.05;;
52744;SDS011;38637;49.984;20.426;2023-11-21T10:12:48;37.72;;;24.42;;
52744;SDS011;38637;49.984;20.426;2023-11-21T10:15:18;27.10;;;20.45;;
52744;SDS011;38637;49.984;20.426;2023-11-21T10:17:46;22.38;;;17.90;;
52744;SDS011;38637;49.984;20.426;2023-11-21T10:20:14;19.15;;;15.15;;
52744;SDS011;38637;49.984;20.426;2023-11-21T10:22:40;22.57;;;16.57;;
52744;SDS011;38637;49.984;20.426;2023-11-21T10:25:07;20.98;;;15.48;;
52744;SDS011;38637;49.984;20.426;2023-11-21T10:27:34;20.25;;;16.23;;
52744;SDS011;38637;49.984;20.426;2023-11-21T10:30:01;18.30;;;15.15;;
52744;SDS011;38637;49.984;20.426;2023-11-21T10:32:28;18.60;;;14.95;;
52744;SDS011;38637;49.984;20.426;2023-11-21T10:34:57;17.30;;;14.70;;
52744;SDS011;38637;49.984;20.426;2023-11-21T10:37:23;19.93;;;14.37;;
52744;SDS011;38637;49.984;20.426;2023-11-21T10:39:48;17.33;;;14.97;;
52744;SDS011;38637;49.984;20.426;2023-11-21T10:42:14;20.20;;;15.57;;
52744;SDS011;38637;49.984;20.426;2023-11-21T10:44:41;24.97;;;16.47;;
52744;SDS011;38637;49.984;20.426;2023-11-21T10:47:09;22.10;;;16.20;;
52744;SDS011;38637;49.984;20.426;2023-11-21T10:49:36;24.08;;;17.30;;
52744;SDS011;38637;49.984;20.426;2023-11-21T10:52:02;21.23;;;15.37;;
52744;SDS011;38637;49.984;20.426;2023-11-21T10:54:29;20.92;;;18.10;;
52744;SDS011;38637;49.984;20.426;2023-11-21T10:56:59;19.77;;;17.00;;
52744;SDS011;38637;49.984;20.426;2023-11-21T10:59:29;20.33;;;16.98;;
52744;SDS011;38637;49.984;20.426;2023-11-21T11:01:57;24.02;;;17.90;;
52744;SDS011;38637;49.984;20.426;2023-11-21T11:04:23;23.20;;;18.13;;
52744;SDS011;38637;49.984;20.426;2023-11-21T11:06:56;23.50;;;17.70;;
52744;SDS011;38637;49.984;20.426;2023-11-21T11:09:23;21.30;;;19.00;;
52744;SDS011;38637;49.984;20.426;2023-11-21T11:11:49;19.63;;;16.98;;
52744;SDS011;38637;49.984;20.426;2023-11-21T11:14:16;17.80;;;15.98;;
52744;SDS011;38637;49.984;20.426;2023-11-21T11:16:44;17.17;;;14.90;;
52744;SDS011;38637;49.984;20.426;2023-11-21T11:19:10;18.40;;;14.45;;
52744;SDS011;38637;49.984;20.426;2023-11-21T11:24:22;19.88;;;15.43;;
52744;SDS011;38637;49.984;20.426;2023-11-21T11:30:06;21.10;;;15.80;;
52744;SDS011;38637;49.984;20.426;2023-11-21T11:35:34;18.13;;;14.02;;
52744;SDS011;38637;49.984;20.426;2023-11-21T11:38:02;18.67;;;15.40;;
52744;SDS011;38637;49.984;20.426;2023-11-21T11:43:29;16.98;;;14.98;;
52744;SDS011;38637;49.984;20.426;2023-11-21T11:45:57;21.08;;;14.93;;
52744;SDS011;38637;49.984;20.426;2023-11-21T11:48:24;19.17;;;16.08;;
52744;SDS011;38637;49.984;20.426;2023-11-21T11:51:03;18.00;;;16.10;;
52744;SDS011;38637;49.984;20.426;2023-11-21T11:53:33;18.20;;;15.27;;
52744;SDS011;38637;49.984;20.426;2023-11-21T11:58:51;18.27;;;13.55;;
52744;SDS011;38637;49.984;20.426;2023-11-21T12:01:20;15.02;;;12.50;;
52744;SDS011;38637;49.984;20.426;2023-11-21T12:04:32;18.08;;;13.65;;
52744;SDS011;38637;49.984;20.426;2023-11-21T12:06:36;15.80;;;12.23;;
52744;SDS011;38637;49.984;20.426;2023-11-21T12:09:02;15.43;;;10.63;;
52744;SDS011;38637;49.984;20.426;2023-11-21T12:11:31;13.40;;;10.88;;
52744;SDS011;38637;49.984;20.426;2023-11-21T12:13:57;14.25;;;11.07;;
52744;SDS011;38637;49.984;20.426;2023-11-21T12:16:24;15.63;;;10.88;;
52744;SDS011;38637;49.984;20.426;2023-11-21T12:18:52;15.35;;;10.93;;
52744;SDS011;38637;49.984;20.426;2023-11-21T12:21:18;20.17;;;11.18;;
52744;SDS011;38637;49.984;20.426;2023-11-21T12:23:47;14.50;;;11.00;;
52744;SDS011;38637;49.984;20.426;2023-11-21T12:26:13;13.13;;;10.90;;
52744;SDS011;38637;49.984;20.426;2023-11-21T12:28:39;15.30;;;9.93;;
52744;SDS011;38637;49.984;20.426;2023-11-21T12:31:04;13.23;;;9.37;;
52744;SDS011;38637;49.984;20.426;2023-11-21T12:33:31;18.65;;;10.77;;
52744;SDS011;38637;49.984;20.426;2023-11-21T12:36:00;16.73;;;9.57;;
52744;SDS011;38637;49.984;20.426;2023-11-21T12:38:25;15.77;;;10.57;;
52744;SDS011;38637;49.984;20.426;2023-11-21T12:40:59;16.92;;;10.95;;
52744;SDS011;38637;49.984;20.426;2023-11-21T12:43:25;16.17;;;13.37;;
52744;SDS011;38637;49.984;20.426;2023-11-21T12:45:50;14.47;;;11.27;;
52744;SDS011;38637;49.984;20.426;2023-11-21T12:48:17;19.13;;;12.40;;
52744;SDS011;38637;49.984;20.426;2023-11-21T12:50:49;17.58;;;11.88;;
52744;SDS011;38637;49.984;20.426;2023-11-21T12:53:18;20.00;;;14.10;;
52744;SDS011;38637;49.984;20.426;2023-11-21T12:55:43;18.83;;;13.33;;
52744;SDS011;38637;49.984;20.426;2023-11-21T12:58:14;21.67;;;14.45;;
52744;SDS011;38637;49.984;20.426;2023-11-21T13:00:47;20.58;;;16.05;;
52744;SDS011;38637;49.984;20.426;2023-11-21T13:03:14;21.10;;;16.58;;
52744;SDS011;38637;49.984;20.426;2023-11-21T13:05:50;21.45;;;16.95;;
52744;SDS011;38637;49.984;20.426;2023-11-21T13:08:19;20.25;;;15.35;;
52744;SDS011;38637;49.984;20.426;2023-11-21T13:10:48;19.02;;;14.38;;
52744;SDS011;38637;49.984;20.426;2023-11-21T13:13:15;18.70;;;14.05;;
52744;SDS011;38637;49.984;20.426;2023-11-21T13:15:53;17.98;;;14.23;;
52744;SDS011;38637;49.984;20.426;2023-11-21T13:18:25;17.63;;;14.15;;
52744;SDS011;38637;49.984;20.426;2023-11-21T13:20:53;20.95;;;13.75;;
52744;SDS011;38637;49.984;20.426;2023-11-21T13:23:20;18.42;;;14.60;;
52744;SDS011;38637;49.984;20.426;2023-11-21T13:25:45;19.90;;;13.87;;
52744;SDS011;38637;49.984;20.426;2023-11-21T13:28:13;17.05;;;13.85;;
52744;SDS011;38637;49.984;20.426;2023-11-21T13:30:40;17.05;;;14.50;;
52744;SDS011;38637;49.984;20.426;2023-11-21T13:33:07;19.85;;;15.80;;
52744;SDS011;38637;49.984;20.426;2023-11-21T13:35:37;18.77;;;14.90;;
52744;SDS011;38637;49.984;20.426;2023-11-21T13:40:34;15.13;;;13.52;;
52744;SDS011;38637;49.984;20.426;2023-11-21T13:43:07;24.67;;;14.95;;
52744;SDS011;38637;49.984;20.426;2023-11-21T13:45:35;18.20;;;14.77;;
52744;SDS011;38637;49.984;20.426;2023-11-21T13:50:27;16.65;;;13.73;;
52744;SDS011;38637;49.984;20.426;2023-11-21T13:53:01;19.90;;;14.00;;
52744;SDS011;38637;49.984;20.426;2023-11-21T13:55:41;24.10;;;14.98;;
52744;SDS011;38637;49.984;20.426;2023-11-21T13:58:07;17.48;;;14.98;;
52744;SDS011;38637;49.984;20.426;2023-11-21T14:00:36;21.67;;;15.95;;
52744;SDS011;38637;49.984;20.426;2023-11-21T14:03:11;20.52;;;15.35;;
52744;SDS011;38637;49.984;20.426;2023-11-21T14:05:47;21.27;;;15.83;;
52744;SDS011;38637;49.984;20.426;2023-11-21T14:08:19;20.10;;;15.57;;
52744;SDS011;38637;49.984;20.426;2023-11-21T14:10:46;21.92;;;15.35;;
52744;SDS011;38637;49.984;20.426;2023-11-21T14:13:22;17.70;;;14.13;;
52744;SDS011;38637;49.984;20.426;2023-11-21T14:15:52;20.25;;;15.23;;
52744;SDS011;38637;49.984;20.426;2023-11-21T14:18:25;21.33;;;16.17;;
52744;SDS011;38637;49.984;20.426;2023-11-21T14:20:56;19.88;;;16.33;;
52744;SDS011;38637;49.984;20.426;2023-11-21T14:23:22;18.70;;;16.35;;
52744;SDS011;38637;49.984;20.426;2023-11-21T14:25:48;19.60;;;16.20;;
52744;SDS011;38637;49.984;20.426;2023-11-21T14:28:15;23.20;;;16.13;;
52744;SDS011;38637;49.984;20.426;2023-11-21T14:30:40;20.90;;;15.53;;
52744;SDS011;38637;49.984;20.426;2023-11-21T14:33:07;20.20;;;16.10;;
52744;SDS011;38637;49.984;20.426;2023-11-21T14:35:34;18.92;;;14.95;;
52744;SDS011;38637;49.984;20.426;2023-11-21T14:38:00;20.57;;;17.13;;
52744;SDS011;38637;49.984;20.426;2023-11-21T14:40:29;26.48;;;15.55;;
52744;SDS011;38637;49.984;20.426;2023-11-21T14:42:58;23.67;;;16.63;;
52744;SDS011;38637;49.984;20.426;2023-11-21T14:45:25;22.77;;;16.55;;
52744;SDS011;38637;49.984;20.426;2023-11-21T14:47:52;20.17;;;16.92;;
52744;SDS011;38637;49.984;20.426;2023-11-21T14:50:43;21.40;;;16.05;;